createdAt,value
2022-09-07T00:01:04.121Z,41
2022-09-07T00:02:08.798Z,38
2022-09-07T00:03:13.292Z,42
2022-09-07T00:04:17.635Z,29
2022-09-07T00:05:23.928Z,31
2022-09-07T00:06:28.527Z,39
2022-09-07T00:07:33.319Z,38
2022-09-07T00:08:40.320Z,26
2022-09-07T00:09:44.924Z,29
2022-09-07T00:10:49.505Z,36
2022-09-07T00:11:58.897Z,35
2022-09-07T00:13:03.537Z,28
2022-09-07T00:14:08.232Z,31
2022-09-07T00:15:12.919Z,28
2022-09-07T00:16:17.425Z,26
2022-09-07T00:17:27.640Z,31
2022-09-07T00:18:32.061Z,39
2022-09-07T00:19:36.400Z,34
2022-09-07T00:20:44.177Z,28
2022-09-07T00:21:48.697Z,29
2022-09-07T00:22:53.081Z,34
2022-09-07T00:23:57.261Z,35
2022-09-07T00:25:02.612Z,34
2022-09-07T00:26:07.355Z,26
2022-09-07T00:27:12.428Z,28
2022-09-07T00:28:17.074Z,28
2022-09-07T00:29:21.564Z,30
2022-09-07T00:30:25.964Z,32
2022-09-07T00:31:30.450Z,35
2022-09-07T00:32:34.849Z,29
2022-09-07T00:33:39.501Z,33
2022-09-07T00:34:43.972Z,32
2022-09-07T00:35:48.396Z,35
2022-09-07T00:36:52.742Z,26
2022-09-07T00:37:57.152Z,28
2022-09-07T00:39:01.529Z,40
2022-09-07T00:40:06.282Z,33
2022-09-07T00:41:10.725Z,25
2022-09-07T00:42:19.831Z,32
2022-09-07T00:43:24.437Z,32
2022-09-07T00:44:36.812Z,30
2022-09-07T00:45:44.035Z,32
2022-09-07T00:46:48.646Z,33
2022-09-07T00:47:52.839Z,37
2022-09-07T00:48:57.280Z,25
2022-09-07T00:50:09.436Z,32
2022-09-07T00:51:18.788Z,33
2022-09-07T00:52:26.024Z,26
2022-09-07T00:53:30.448Z,27
2022-09-07T00:54:40.204Z,33
2022-09-07T00:55:44.769Z,39
2022-09-07T00:56:49.135Z,27
2022-09-07T00:57:56.144Z,30
2022-09-07T00:59:00.643Z,29
2022-09-07T01:00:04.956Z,30
2022-09-07T01:01:10.039Z,38
2022-09-07T01:02:18.475Z,39
2022-09-07T01:03:22.734Z,29
2022-09-07T01:04:27.464Z,30
2022-09-07T01:05:31.923Z,35
2022-09-07T01:06:44.498Z,35
2022-09-07T01:07:49.252Z,33
2022-09-07T01:08:53.502Z,34
2022-09-07T01:09:57.695Z,31
2022-09-07T01:11:02.360Z,34
2022-09-07T01:13:15.902Z,34
2022-09-07T01:14:20.503Z,36
2022-09-07T01:15:25.260Z,34
2022-09-07T01:16:32.704Z,30
2022-09-07T01:17:44.008Z,36
2022-09-07T01:18:48.364Z,31
2022-09-07T01:19:57.784Z,28
2022-09-07T01:21:12.410Z,29
2022-09-07T01:22:19.767Z,30
2022-09-07T01:23:27.255Z,28
2022-09-07T01:24:36.816Z,30
2022-09-07T01:25:46.381Z,29
2022-09-07T01:27:01.140Z,30
2022-09-07T01:28:16.008Z,25
2022-09-07T01:29:25.468Z,25
2022-09-07T01:30:32.376Z,25
2022-09-07T01:31:40.096Z,25
2022-09-07T01:32:47.828Z,30
2022-09-07T01:33:57.360Z,32
2022-09-07T01:35:06.531Z,27
2022-09-07T01:36:16.028Z,25
2022-09-07T01:37:28.929Z,26
2022-09-07T01:38:38.751Z,33
2022-09-07T01:39:46.417Z,25
2022-09-07T01:40:56.917Z,26
2022-09-07T01:42:07.508Z,40
2022-09-07T01:43:12.335Z,30
2022-09-07T01:44:22.572Z,32
2022-09-07T01:45:32.156Z,30
2022-09-07T01:46:37.018Z,33
2022-09-07T01:47:41.552Z,28
2022-09-07T01:48:46.323Z,33
2022-09-07T01:49:50.788Z,32
2022-09-07T01:51:06.563Z,27
2022-09-07T01:52:10.907Z,26
2022-09-07T01:53:18.507Z,35
2022-09-07T01:54:28.024Z,31
2022-09-07T01:55:44.609Z,26
2022-09-07T01:56:54.256Z,31
2022-09-07T01:57:58.812Z,26
2022-09-07T01:59:03.656Z,25
2022-09-07T02:00:11.449Z,33
2022-09-07T02:01:15.962Z,35
2022-09-07T02:02:27.628Z,30
2022-09-07T02:03:32.024Z,34
2022-09-07T02:04:46.571Z,33
2022-09-07T02:05:53.649Z,36
2022-09-07T02:07:00.699Z,31
2022-09-07T02:08:17.635Z,31
2022-09-07T02:09:27.460Z,35
2022-09-07T02:10:32.003Z,35
2022-09-07T02:11:38.524Z,36
2022-09-07T02:12:43.040Z,31
2022-09-07T02:13:52.863Z,30
2022-09-07T02:15:02.364Z,38
2022-09-07T02:16:07.269Z,32
2022-09-07T02:17:11.639Z,32
2022-09-07T02:18:21.105Z,34
2022-09-07T02:19:29.175Z,31
2022-09-07T02:20:33.707Z,32
2022-09-07T02:21:38.248Z,36
2022-09-07T02:22:42.727Z,42
2022-09-07T02:23:47.372Z,38
2022-09-07T02:24:52.092Z,30
2022-09-07T02:25:56.704Z,37
2022-09-07T02:27:01.140Z,38
2022-09-07T02:28:05.556Z,35
2022-09-07T02:29:10.093Z,26
2022-09-07T02:30:14.533Z,31
2022-09-07T02:31:19.355Z,37
2022-09-07T02:32:23.603Z,31
2022-09-07T02:33:27.819Z,33
2022-09-07T02:34:32.243Z,34
2022-09-07T02:35:36.876Z,29
2022-09-07T02:36:41.631Z,33
2022-09-07T02:37:46.231Z,25
2022-09-07T02:38:50.803Z,28
2022-09-07T02:39:55.390Z,28
2022-09-07T02:40:59.635Z,32
2022-09-07T02:42:07.231Z,31
2022-09-07T02:43:11.671Z,33
2022-09-07T02:44:16.139Z,33
2022-09-07T02:45:20.857Z,32
2022-09-07T02:46:26.467Z,33
2022-09-07T02:47:41.060Z,34
2022-09-07T02:48:55.640Z,37
2022-09-07T02:50:10.267Z,27
2022-09-07T02:51:18.741Z,32
2022-09-07T02:52:33.295Z,34
2022-09-07T02:53:42.802Z,34
2022-09-07T02:55:00.747Z,30
2022-09-07T02:56:15.375Z,27
2022-09-07T02:57:27.629Z,29
2022-09-07T02:58:34.883Z,38
2022-09-07T02:59:45.019Z,32
2022-09-07T03:00:52.116Z,33
2022-09-07T03:02:06.981Z,30
2022-09-07T03:03:17.135Z,36
2022-09-07T03:04:24.684Z,32
2022-09-07T03:05:36.983Z,34
2022-09-07T03:06:41.155Z,32
2022-09-07T03:07:52.616Z,36
2022-09-07T03:08:56.919Z,35
2022-09-07T03:10:01.790Z,36
2022-09-07T03:11:07.579Z,39
2022-09-07T03:12:14.751Z,29
2022-09-07T03:13:19.739Z,40
2022-09-07T03:14:24.171Z,36
2022-09-07T03:15:28.777Z,35
2022-09-07T03:16:34.131Z,36
2022-09-07T03:17:39.054Z,30
2022-09-07T03:18:43.849Z,36
2022-09-07T03:19:48.541Z,36
2022-09-07T03:20:53.011Z,41
2022-09-07T03:21:57.403Z,27
2022-09-07T03:23:01.908Z,32
2022-09-07T03:24:06.579Z,37
2022-09-07T03:25:10.941Z,33
2022-09-07T03:26:18.147Z,28
2022-09-07T03:27:28.606Z,45
2022-09-07T03:28:36.179Z,35
2022-09-07T03:29:42.069Z,31
2022-09-07T03:30:45.417Z,27
2022-09-07T03:31:49.704Z,37
2022-09-07T03:32:54.167Z,32
2022-09-07T03:33:58.467Z,38
2022-09-07T03:35:03.139Z,36
2022-09-07T03:36:08.947Z,40
2022-09-07T03:37:16.075Z,30
2022-09-07T03:39:24.935Z,35
2022-09-07T03:40:33.727Z,31
2022-09-07T03:41:38.139Z,40
2022-09-07T03:42:42.591Z,38
2022-09-07T03:43:49.970Z,41
2022-09-07T03:44:54.339Z,37
2022-09-07T03:45:58.865Z,37
2022-09-07T03:47:03.427Z,41
2022-09-07T03:48:13.044Z,41
2022-09-07T03:49:17.493Z,40
2022-09-07T03:50:22.327Z,42
2022-09-07T03:51:26.967Z,46
2022-09-07T03:52:31.383Z,41
2022-09-07T03:53:35.659Z,36
2022-09-07T03:54:44.565Z,39
2022-09-07T03:55:49.879Z,48
2022-09-07T03:57:00.032Z,40
2022-09-07T03:58:04.583Z,43
2022-09-07T03:59:09.055Z,40
2022-09-07T04:00:13.423Z,44
2022-09-07T04:01:18.066Z,37
2022-09-07T04:02:25.471Z,39
2022-09-07T04:03:32.807Z,39
2022-09-07T04:04:37.223Z,47
2022-09-07T04:05:41.923Z,45
2022-09-07T04:06:46.579Z,48
2022-09-07T04:07:51.086Z,48
2022-09-07T04:08:55.747Z,48
2022-09-07T04:10:05.400Z,49
2022-09-07T04:11:10.052Z,61
2022-09-07T04:12:14.527Z,55
2022-09-07T04:13:23.938Z,52
2022-09-07T04:14:29.055Z,50
2022-09-07T04:15:33.648Z,47
2022-09-07T04:16:38.264Z,52
2022-09-07T04:17:42.579Z,55
2022-09-07T04:18:47.425Z,56
2022-09-07T04:19:52.143Z,53
2022-09-07T04:20:56.639Z,59
2022-09-07T04:22:01.306Z,58
2022-09-07T04:23:08.487Z,59
2022-09-07T04:24:13.251Z,52
2022-09-07T04:25:17.587Z,59
2022-09-07T04:26:22.147Z,60
2022-09-07T04:27:26.687Z,63
2022-09-07T04:28:31.145Z,58
2022-09-07T04:29:35.383Z,60
2022-09-07T04:30:39.776Z,63
2022-09-07T04:31:48.319Z,60
2022-09-07T04:32:52.935Z,58
2022-09-07T04:33:57.651Z,62
2022-09-07T04:35:02.375Z,58
2022-09-07T04:36:06.935Z,63
2022-09-07T04:37:11.271Z,62
2022-09-07T04:38:15.547Z,64
2022-09-07T04:39:20.123Z,67
2022-09-07T04:40:24.747Z,65
2022-09-07T04:41:29.123Z,72
2022-09-07T04:42:37.739Z,63
2022-09-07T04:43:42.235Z,68
2022-09-07T04:44:46.767Z,65
2022-09-07T04:45:51.263Z,66
2022-09-07T04:46:55.771Z,57
2022-09-07T04:48:00.227Z,65
2022-09-07T04:49:04.965Z,64
2022-09-07T04:50:14.619Z,64
2022-09-07T04:51:22.183Z,72
2022-09-07T04:52:26.803Z,67
2022-09-07T04:53:31.413Z,75
2022-09-07T04:55:39.808Z,70
2022-09-07T04:56:44.459Z,70
2022-09-07T04:57:48.863Z,75
2022-09-07T04:58:53.634Z,65
2022-09-07T04:59:59.259Z,68
2022-09-07T05:01:03.910Z,72
2022-09-07T05:02:13.077Z,68
2022-09-07T05:03:17.551Z,69
2022-09-07T05:04:22.147Z,71
2022-09-07T05:05:26.587Z,77
2022-09-07T05:06:31.727Z,66
2022-09-07T05:07:36.007Z,70
2022-09-07T05:08:40.782Z,71
2022-09-07T05:09:45.491Z,71
2022-09-07T05:10:49.890Z,72
2022-09-07T05:11:54.387Z,73
2022-09-07T05:13:00.971Z,73
2022-09-07T05:14:05.199Z,72
2022-09-07T05:15:09.784Z,66
2022-09-07T05:16:14.169Z,65
2022-09-07T05:17:18.923Z,71
2022-09-07T05:18:23.525Z,74
2022-09-07T05:19:27.799Z,69
2022-09-07T05:20:32.270Z,72
2022-09-07T05:21:36.658Z,76
2022-09-07T05:22:41.239Z,67
2022-09-07T05:23:45.686Z,67
2022-09-07T05:24:50.322Z,73
2022-09-07T05:25:54.826Z,71
2022-09-07T05:26:59.585Z,76
2022-09-07T05:28:04.106Z,76
2022-09-07T05:31:18.105Z,81
2022-09-07T05:32:22.566Z,83
2022-09-07T05:34:33.566Z,78
2022-09-07T05:35:38.051Z,81
2022-09-07T05:36:42.461Z,78
2022-09-07T05:37:47.050Z,87
2022-09-07T05:38:51.706Z,89
2022-09-07T05:39:56.552Z,71
2022-09-07T05:41:01.118Z,81
2022-09-07T05:42:10.642Z,82
2022-09-07T05:43:15.369Z,76
2022-09-07T05:45:24.342Z,85
2022-09-07T05:46:28.923Z,84
2022-09-07T05:47:34.845Z,91
2022-09-07T05:48:39.462Z,85
2022-09-07T05:49:43.973Z,90
2022-09-07T05:50:53.710Z,90
2022-09-07T05:51:58.003Z,92
2022-09-07T05:53:02.410Z,86
2022-09-07T05:54:06.799Z,86
2022-09-07T05:55:29.181Z,87
2022-09-07T05:56:17.514Z,83
2022-09-07T05:57:21.974Z,87
2022-09-07T05:58:27.447Z,85
2022-09-07T05:59:32.129Z,88
2022-09-07T06:00:41.022Z,90
2022-09-07T06:01:49.962Z,95
2022-09-07T06:02:54.722Z,88
2022-09-07T06:03:59.238Z,85
2022-09-07T06:05:03.798Z,85
2022-09-07T06:06:08.451Z,91
2022-09-07T06:07:21.920Z,83
2022-09-07T06:08:21.559Z,83
2022-09-07T06:09:30.604Z,83
2022-09-07T06:10:49.441Z,83
2022-09-07T06:11:38.566Z,76
2022-09-07T06:12:44.360Z,77
2022-09-07T06:13:47.809Z,77
2022-09-07T06:14:52.471Z,82
2022-09-07T06:16:01.347Z,77
2022-09-07T06:17:05.802Z,74
2022-09-07T06:18:10.499Z,76
2022-09-07T06:19:15.462Z,82
2022-09-07T06:20:20.185Z,78
2022-09-07T06:21:24.707Z,71
2022-09-07T06:22:31.111Z,73
2022-09-07T06:23:37.601Z,67
2022-09-07T06:24:42.369Z,72
2022-09-07T06:25:47.070Z,64
2022-09-07T06:26:51.913Z,66
2022-09-07T06:28:00.999Z,68
2022-09-07T06:29:05.746Z,68
2022-09-07T06:30:14.538Z,70
2022-09-07T06:31:19.364Z,64
2022-09-07T06:33:27.949Z,65
2022-09-07T06:34:32.138Z,65
2022-09-07T06:35:36.762Z,65
2022-09-07T06:36:41.075Z,64
2022-09-07T06:37:45.318Z,65
2022-09-07T06:38:50.445Z,65
2022-09-07T06:39:54.866Z,58
2022-09-07T06:42:03.609Z,56
2022-09-07T06:43:08.258Z,48
2022-09-07T06:44:13.042Z,55
2022-09-07T06:45:17.538Z,55
2022-09-07T06:47:30.569Z,51
2022-09-07T06:48:37.795Z,50
2022-09-07T06:49:41.426Z,47
2022-09-07T06:50:45.717Z,48
2022-09-07T06:51:58.637Z,52
2022-09-07T06:55:13.402Z,42
2022-09-07T06:56:17.978Z,47
2022-09-07T06:57:22.606Z,33
2022-09-07T06:58:27.118Z,26
2022-09-07T06:59:31.451Z,42
2022-09-07T07:00:35.859Z,29
2022-09-07T07:01:40.114Z,36
2022-09-07T07:02:44.567Z,29
2022-09-07T07:03:49.118Z,47
2022-09-07T07:04:53.558Z,28
2022-09-07T07:06:00.306Z,26
2022-09-07T07:07:04.829Z,29
2022-09-07T07:08:12.185Z,32
2022-09-07T07:09:16.567Z,28
2022-09-07T07:10:24.445Z,32
2022-09-07T07:11:25.089Z,28
2022-09-07T07:13:34.685Z,30
2022-09-07T07:14:45.053Z,29
2022-09-07T07:15:47.293Z,27
2022-09-07T07:16:51.793Z,25
2022-09-07T07:18:09.463Z,29
2022-09-07T07:19:04.269Z,35
2022-09-07T07:20:10.425Z,25
2022-09-07T07:21:15.122Z,25
2022-09-07T07:22:42.866Z,25
2022-09-07T07:23:28.093Z,25
2022-09-07T07:24:32.737Z,27
2022-09-07T07:25:37.345Z,31
2022-09-07T07:26:41.698Z,34
2022-09-07T07:27:49.850Z,34
2022-09-07T07:29:02.375Z,33
2022-09-07T07:30:03.161Z,42
2022-09-07T07:31:11.222Z,27
2022-09-07T07:32:12.729Z,33
2022-09-07T07:34:20.759Z,36
2022-09-07T07:35:25.308Z,33
2022-09-07T07:36:29.645Z,33
2022-09-07T07:37:34.469Z,36
2022-09-07T07:41:56.577Z,30
2022-09-07T07:42:59.814Z,30
2022-09-07T07:44:04.221Z,29
2022-09-07T07:46:16.828Z,26
2022-09-07T07:47:21.385Z,27
2022-09-07T07:48:25.742Z,37
2022-09-07T07:49:30.244Z,25
2022-09-07T07:50:34.839Z,31
2022-09-07T07:52:50.474Z,35
2022-09-07T07:53:53.819Z,29
2022-09-07T07:54:58.101Z,27
2022-09-07T07:56:02.301Z,37
2022-09-07T07:57:06.863Z,25
2022-09-07T07:58:12.032Z,35
2022-09-07T07:59:16.545Z,28
2022-09-07T08:00:37.331Z,32
2022-09-07T08:01:25.710Z,34
2022-09-07T08:02:33.567Z,31
2022-09-07T08:03:37.873Z,29
2022-09-07T08:04:42.555Z,29
2022-09-07T08:05:47.214Z,30
2022-09-07T08:06:52.029Z,38
2022-09-07T08:07:56.657Z,34
2022-09-07T08:09:05.676Z,31
2022-09-07T08:10:14.040Z,27
2022-09-07T08:11:18.569Z,29
2022-09-07T08:12:26.629Z,31
2022-09-07T08:13:27.699Z,29
2022-09-07T08:14:32.056Z,38
2022-09-07T08:15:36.440Z,28
2022-09-07T08:16:40.841Z,28
2022-09-07T08:17:45.396Z,32
2022-09-07T08:18:49.828Z,31
2022-09-07T08:19:54.378Z,31
2022-09-07T08:20:59.405Z,28
2022-09-07T08:22:04.104Z,32
2022-09-07T08:23:08.755Z,31
2022-09-07T08:24:13.457Z,32
2022-09-07T08:25:18.029Z,30
2022-09-07T08:26:27.586Z,25
2022-09-07T08:27:31.922Z,32
2022-09-07T08:28:36.404Z,25
2022-09-07T08:29:41.232Z,27
2022-09-07T08:30:45.760Z,28
2022-09-07T08:31:50.325Z,42
2022-09-07T08:32:54.900Z,34
2022-09-07T08:33:59.364Z,29
2022-09-07T08:35:03.726Z,32
2022-09-07T08:36:08.632Z,30
2022-09-07T08:37:17.756Z,36
2022-09-07T08:38:22.328Z,36
2022-09-07T08:39:26.867Z,31
2022-09-07T08:40:32.116Z,27
2022-09-07T08:41:36.876Z,28
2022-09-07T08:42:46.768Z,25
2022-09-07T08:43:59.380Z,31
2022-09-07T08:45:04.505Z,36
2022-09-07T08:46:15.931Z,29
2022-09-07T08:47:22.903Z,29
2022-09-07T08:48:41.631Z,36
2022-09-07T08:49:46.134Z,32
2022-09-07T08:51:00.714Z,28
2022-09-07T08:52:10.321Z,28
2022-09-07T08:53:15.128Z,31
2022-09-07T08:55:23.087Z,34
2022-09-07T08:56:33.737Z,30
2022-09-07T08:57:37.868Z,25
2022-09-07T08:58:49.005Z,29
2022-09-07T08:59:50.712Z,32
2022-09-07T09:02:35.360Z,41
2022-09-07T09:03:30.840Z,50
2022-09-07T09:04:31.399Z,46
2022-09-07T09:05:35.113Z,52
2022-09-07T09:06:42.745Z,39
2022-09-07T09:07:53.315Z,42
2022-09-07T09:09:00.520Z,32
2022-09-07T09:10:10.289Z,29
2022-09-07T09:11:21.804Z,44
2022-09-07T09:12:29.017Z,55
2022-09-07T09:13:43.612Z,35
2022-09-07T09:15:01.260Z,41
2022-09-07T09:16:05.716Z,38
2022-09-07T09:17:13.287Z,37
2022-09-07T09:18:18.360Z,33
2022-09-07T09:19:23.736Z,31
2022-09-07T09:20:36.316Z,37
2022-09-07T09:21:46.027Z,40
2022-09-07T09:22:50.868Z,25
2022-09-07T09:23:55.340Z,30
2022-09-07T09:25:02.213Z,31
2022-09-07T09:26:19.633Z,31
2022-09-07T09:27:27.012Z,34
2022-09-07T09:28:34.972Z,33
2022-09-07T09:29:41.228Z,40
2022-09-07T09:30:45.523Z,30
2022-09-07T09:31:49.995Z,32
2022-09-07T09:32:54.384Z,32
2022-09-07T09:34:08.980Z,36
2022-09-07T09:35:16.176Z,38
2022-09-07T09:36:26.252Z,31
2022-09-07T09:37:30.846Z,34
2022-09-07T09:38:38.405Z,35
2022-09-07T09:39:42.925Z,30
2022-09-07T09:40:47.277Z,29
2022-09-07T09:41:53.743Z,35
2022-09-07T09:43:01.115Z,36
2022-09-07T09:44:05.673Z,38
2022-09-07T09:45:10.272Z,37
2022-09-07T09:46:19.123Z,37
2022-09-07T09:47:34.129Z,35
2022-09-07T09:48:38.428Z,28
2022-09-07T09:49:42.811Z,39
2022-09-07T09:52:59.946Z,34
2022-09-07T09:54:08.963Z,29
2022-09-07T09:55:34.253Z,36
2022-09-07T09:56:31.324Z,41
2022-09-07T09:57:38.905Z,41
2022-09-07T10:00:10.446Z,39
2022-09-07T10:01:27.226Z,44
2022-09-07T10:04:34.664Z,29
2022-09-07T10:05:39.299Z,34
2022-09-07T10:06:43.576Z,32
2022-09-07T10:07:50.847Z,40
2022-09-07T10:08:55.462Z,33
2022-09-07T10:09:59.951Z,34
2022-09-07T10:11:04.517Z,35
2022-09-07T10:12:09.048Z,42
2022-09-07T10:13:21.155Z,44
2022-09-07T10:14:25.887Z,47
2022-09-07T10:15:41.463Z,48
2022-09-07T10:16:44.947Z,47
2022-09-07T10:17:49.400Z,51
2022-09-07T10:18:53.789Z,39
2022-09-07T10:19:59.172Z,50
2022-09-07T10:21:08.748Z,44
2022-09-07T10:22:16.619Z,39
2022-09-07T10:23:26.964Z,41
2022-09-07T10:24:31.599Z,41
2022-09-07T10:25:36.478Z,46
2022-09-07T10:26:41.164Z,43
2022-09-07T10:27:45.861Z,37
2022-09-07T10:29:06.919Z,48
2022-09-07T10:30:06.793Z,44
2022-09-07T10:31:15.508Z,42
2022-09-07T10:32:23.615Z,52
2022-09-07T10:33:33.147Z,58
2022-09-07T10:34:42.627Z,45
2022-09-07T10:35:47.933Z,41
2022-09-07T10:36:55.116Z,44
2022-09-07T10:38:06.765Z,48
2022-09-07T10:39:16.371Z,48
2022-09-07T10:40:30.867Z,39
2022-09-07T10:41:41.803Z,40
2022-09-07T10:45:05.028Z,43
2022-09-07T10:46:56.135Z,34
2022-09-07T10:47:27.009Z,44
2022-09-07T10:48:32.570Z,41
2022-09-07T10:50:21.758Z,45
2022-09-07T10:50:54.639Z,39
2022-09-07T10:52:01.847Z,54
2022-09-07T10:53:36.835Z,53
2022-09-07T10:54:36.242Z,53
2022-09-07T10:55:32.615Z,44
2022-09-07T10:56:37.036Z,51
2022-09-07T10:57:54.527Z,62
2022-09-07T10:59:08.815Z,54
2022-09-07T11:00:18.443Z,48
2022-09-07T11:01:22.827Z,48
2022-09-07T11:02:37.884Z,51
2022-09-07T11:03:50.908Z,58
2022-09-07T11:04:58.707Z,57
2022-09-07T11:06:05.999Z,50
2022-09-07T11:07:15.839Z,49
2022-09-07T11:08:28.159Z,38
2022-09-07T11:09:42.659Z,43
2022-09-07T11:10:53.655Z,49
2022-09-07T11:12:03.969Z,47
2022-09-07T11:13:10.136Z,43
2022-09-07T11:14:14.583Z,54
2022-09-07T11:15:20.763Z,47
2022-09-07T11:17:43.011Z,44
2022-09-07T11:18:50.505Z,49
2022-09-07T11:20:05.348Z,45
2022-09-07T11:21:15.123Z,47
2022-09-07T11:22:19.682Z,47
2022-09-07T11:23:27.183Z,49
2022-09-07T11:24:41.819Z,48
2022-09-07T11:25:49.561Z,51
2022-09-07T11:27:06.615Z,45
2022-09-07T11:28:15.808Z,49
2022-09-07T11:29:29.618Z,52
2022-09-07T11:30:35.970Z,59
2022-09-07T11:32:52.751Z,47
2022-09-07T11:35:19.911Z,47
2022-09-07T11:36:31.442Z,48
2022-09-07T11:37:36.373Z,46
2022-09-07T11:38:44.036Z,50
2022-09-07T11:39:58.613Z,49
2022-09-07T11:41:08.957Z,65
2022-09-07T11:43:31.819Z,51
2022-09-07T11:44:36.913Z,42
2022-09-07T11:45:41.626Z,49
2022-09-07T11:46:46.182Z,47
2022-09-07T11:47:52.497Z,37
2022-09-07T11:49:04.423Z,45
2022-09-07T11:50:10.744Z,43
2022-09-07T11:51:18.123Z,43
2022-09-07T11:52:22.903Z,47
2022-09-07T11:53:30.135Z,38
2022-09-07T11:54:34.454Z,39
2022-09-07T11:55:38.999Z,39
2022-09-07T11:56:48.081Z,40
2022-09-07T11:57:55.428Z,45
2022-09-07T11:59:06.931Z,48
2022-09-07T12:00:19.243Z,46
2022-09-07T12:01:28.755Z,44
2022-09-07T12:02:58.644Z,48
2022-09-07T12:03:58.886Z,61
2022-09-07T12:05:08.315Z,56
2022-09-07T12:06:20.704Z,60
2022-09-07T12:07:35.175Z,49
2022-09-07T12:08:47.377Z,64
2022-09-07T12:09:59.187Z,72
2022-09-07T12:11:13.882Z,56
2022-09-07T12:12:23.508Z,63
2022-09-07T12:13:38.132Z,64
2022-09-07T12:14:53.144Z,75
2022-09-07T12:16:00.179Z,61
2022-09-07T12:17:14.835Z,61
2022-09-07T12:18:29.644Z,70
2022-09-07T12:19:44.604Z,61
2022-09-07T12:20:49.195Z,61
2022-09-07T12:21:53.751Z,65
2022-09-07T12:23:02.323Z,65
2022-09-07T12:24:08.381Z,64
2022-09-07T12:25:23.911Z,66
2022-09-07T12:26:28.424Z,59
2022-09-07T12:27:35.909Z,59
2022-09-07T12:28:40.432Z,55
2022-09-07T12:29:45.895Z,64
2022-09-07T12:30:58.410Z,69
2022-09-07T12:33:10.152Z,84
2022-09-07T12:34:19.827Z,75
2022-09-07T12:35:33.867Z,83
2022-09-07T12:36:38.191Z,82
2022-09-07T12:37:42.651Z,84
2022-09-07T12:38:47.499Z,74
2022-09-07T12:40:02.186Z,65
2022-09-07T12:42:38.440Z,81
2022-09-07T12:43:30.015Z,90
2022-09-07T12:44:37.428Z,86
2022-09-07T12:45:42.126Z,88
2022-09-07T12:46:47.037Z,98
2022-09-07T12:47:54.555Z,96
2022-09-07T12:48:58.927Z,92
2022-09-07T12:50:10.063Z,98
2022-09-07T12:52:26.348Z,91
2022-09-07T12:53:33.537Z,89
2022-09-07T12:54:43.850Z,93
2022-09-07T12:58:24.216Z,89
2022-09-07T12:59:37.136Z,94
2022-09-07T13:00:44.083Z,93
2022-09-07T13:02:01.525Z,109
2022-09-07T13:03:49.322Z,103
2022-09-07T13:04:23.152Z,114
2022-09-07T13:05:37.577Z,114
2022-09-07T13:08:08.591Z,106
2022-09-07T13:09:19.531Z,102
2022-09-07T13:10:32.558Z,99
2022-09-07T13:11:37.611Z,118
2022-09-07T13:12:57.941Z,106
2022-09-07T13:14:58.059Z,104
2022-09-07T13:16:03.715Z,111
2022-09-07T13:17:22.552Z,108
2022-09-07T13:18:21.660Z,107
2022-09-07T13:19:30.479Z,105
2022-09-07T13:20:44.947Z,111
2022-09-07T13:21:53.018Z,121
2022-09-07T13:22:57.563Z,119
2022-09-07T13:24:45.479Z,118
2022-09-07T13:25:16.811Z,113
2022-09-07T13:26:24.187Z,104
2022-09-07T13:27:40.571Z,97
2022-09-07T13:28:58.370Z,100
2022-09-07T13:30:06.216Z,107
2022-09-07T13:31:18.494Z,99
2022-09-07T13:33:39.179Z,98
2022-09-07T13:34:48.039Z,99
2022-09-07T13:36:02.582Z,94
2022-09-07T13:37:06.787Z,98
2022-09-07T13:38:13.942Z,97
2022-09-07T13:39:22.566Z,101
2022-09-07T13:40:27.039Z,94
2022-09-07T13:41:32.611Z,95
2022-09-07T13:42:37.135Z,90
2022-09-07T13:43:41.812Z,91
2022-09-07T13:44:48.946Z,86
2022-09-07T13:45:59.339Z,88
2022-09-07T13:47:03.509Z,96
2022-09-07T13:48:19.471Z,97
2022-09-07T13:49:33.606Z,98
2022-09-07T13:50:43.360Z,116
2022-09-07T13:51:59.402Z,128
2022-09-07T13:53:09.931Z,107
2022-09-07T13:54:22.478Z,100
2022-09-07T13:55:32.058Z,104
2022-09-07T13:56:42.359Z,99
2022-09-07T13:57:55.122Z,113
2022-09-07T13:58:59.726Z,107
2022-09-07T14:00:12.066Z,108
2022-09-07T14:01:16.446Z,112
2022-09-07T14:02:20.999Z,103
2022-09-07T14:03:33.200Z,101
2022-09-07T14:04:37.622Z,107
2022-09-07T14:05:42.995Z,99
2022-09-07T14:06:47.254Z,96
2022-09-07T14:07:51.770Z,96
2022-09-07T14:08:56.318Z,98
2022-09-07T14:10:08.822Z,98
2022-09-07T14:11:21.295Z,97
2022-09-07T14:12:33.570Z,96
2022-09-07T14:13:44.707Z,99
2022-09-07T14:14:59.622Z,99
2022-09-07T14:16:14.278Z,102
2022-09-07T14:17:19.250Z,100
2022-09-07T14:18:25.475Z,106
2022-09-07T14:19:32.822Z,107
2022-09-07T14:20:46.778Z,105
2022-09-07T14:21:55.938Z,104
2022-09-07T14:23:03.198Z,108
2022-09-07T14:24:12.854Z,108
2022-09-07T14:25:20.406Z,108
2022-09-07T14:26:25.348Z,107
2022-09-07T14:27:30.115Z,107
2022-09-07T14:28:37.570Z,111
2022-09-07T14:29:42.615Z,113
2022-09-07T14:30:47.461Z,109
2022-09-07T14:32:55.754Z,115
2022-09-07T14:34:02.808Z,116
2022-09-07T14:35:07.181Z,119
2022-09-07T14:36:37.267Z,130
2022-09-07T14:37:19.350Z,121
2022-09-07T14:39:30.979Z,125
2022-09-07T14:40:35.491Z,121
2022-09-07T14:42:43.302Z,123
2022-09-07T14:43:48.359Z,119
2022-09-07T14:44:52.927Z,124
2022-09-07T14:46:07.359Z,118
2022-09-07T14:47:22.351Z,116
2022-09-07T14:48:32.455Z,110
2022-09-07T14:49:36.036Z,116
2022-09-07T14:50:44.942Z,119
2022-09-07T14:51:54.530Z,117
2022-09-07T14:54:06.131Z,121
2022-09-07T14:55:10.842Z,117
2022-09-07T14:56:25.593Z,125
2022-09-07T14:57:32.881Z,126
2022-09-07T14:58:37.274Z,127
2022-09-07T14:59:41.735Z,123
2022-09-07T15:00:46.320Z,119
2022-09-07T15:01:58.671Z,119
2022-09-07T15:03:13.278Z,120
2022-09-07T15:04:27.942Z,115
2022-09-07T15:05:32.206Z,122
2022-09-07T15:07:45.625Z,107
2022-09-07T15:08:49.913Z,99
2022-09-07T15:09:55.462Z,97
2022-09-07T15:12:29.882Z,91
2022-09-07T15:13:27.018Z,91
2022-09-07T15:14:31.590Z,89
2022-09-07T15:15:37.366Z,95
2022-09-07T15:16:42.491Z,90
2022-09-07T15:17:47.046Z,93
2022-09-07T15:18:52.553Z,97
2022-09-07T15:20:02.449Z,97
2022-09-07T15:21:13.122Z,93
2022-09-07T15:22:20.034Z,98
2022-09-07T15:23:24.573Z,94
2022-09-07T15:24:32.118Z,92
2022-09-07T15:25:36.919Z,94
2022-09-07T15:27:46.746Z,88
2022-09-07T15:29:55.965Z,101
2022-09-07T15:32:12.988Z,107
2022-09-07T15:33:23.577Z,111
2022-09-07T15:34:29.998Z,122
2022-09-07T15:35:45.505Z,125
2022-09-07T15:36:53.147Z,122
2022-09-07T15:38:05.356Z,124
2022-09-07T15:39:01.635Z,125
2022-09-07T15:40:29.611Z,122
2022-09-07T15:41:36.178Z,127
2022-09-07T15:43:47.587Z,123
2022-09-07T15:44:50.648Z,124
2022-09-07T15:46:10.935Z,123
2022-09-07T15:47:50.517Z,124
2022-09-07T15:48:34.326Z,122
2022-09-07T15:49:39.534Z,121
2022-09-07T15:50:43.292Z,125
2022-09-07T15:52:55.164Z,128
2022-09-07T15:54:11.320Z,128
2022-09-07T15:55:04.177Z,124
2022-09-07T15:56:09.057Z,129
2022-09-07T15:58:18.417Z,140
2022-09-07T15:59:23.766Z,132
2022-09-07T16:00:28.150Z,131
2022-09-07T16:03:53.269Z,129
2022-09-07T16:04:57.824Z,123
2022-09-07T16:06:03.257Z,124
2022-09-07T16:07:07.637Z,125
2022-09-07T16:08:27.538Z,123
2022-09-07T16:09:17.427Z,119
2022-09-07T16:10:25.985Z,126
2022-09-07T16:11:31.296Z,114
2022-09-07T16:13:40.233Z,121
2022-09-07T16:14:44.622Z,127
2022-09-07T16:15:49.005Z,126
2022-09-07T16:18:00.492Z,121
2022-09-07T16:19:07.144Z,112
2022-09-07T16:20:13.067Z,116
2022-09-07T16:23:27.604Z,121
2022-09-07T16:24:32.317Z,116
2022-09-07T16:25:37.274Z,117
2022-09-07T16:26:42.297Z,123
2022-09-07T16:27:46.458Z,115
2022-09-07T16:28:51.058Z,123
2022-09-07T16:30:00.201Z,116
2022-09-07T16:31:04.638Z,119
2022-09-07T16:33:15.034Z,122
2022-09-07T16:34:19.369Z,116
2022-09-07T16:35:23.830Z,115
2022-09-07T16:36:28.019Z,122
2022-09-07T16:37:32.698Z,119
2022-09-07T16:38:44.876Z,122
2022-09-07T16:39:41.941Z,121
2022-09-07T16:40:46.439Z,126
2022-09-07T16:41:52.405Z,120
2022-09-07T16:42:56.774Z,124
2022-09-07T16:44:02.323Z,123
2022-09-07T16:46:15.980Z,129
2022-09-07T16:47:20.215Z,124
2022-09-07T16:48:26.419Z,127
2022-09-07T16:49:36.346Z,125
2022-09-07T16:50:41.414Z,125
2022-09-07T16:51:53.645Z,123
2022-09-07T16:52:58.058Z,126
2022-09-07T16:54:02.585Z,130
2022-09-07T16:55:09.946Z,129
2022-09-07T16:56:18.954Z,128
2022-09-07T16:57:26.583Z,127